sensor_id;sensor_type;location;lat;lon;timestamp;P1;durP1;ratioP1;P2;durP2;ratioP2
41229;SDS011;26964;50.428;19.218;2023-04-24T00:00:54;23.6;;;14.0;;
41229;SDS011;26964;50.428;19.218;2023-04-24T00:01:53;26.5;;;13.6;;
41229;SDS011;26964;50.428;19.218;2023-04-24T00:02:53;25.9;;;13.3;;
41229;SDS011;26964;50.428;19.218;2023-04-24T00:03:53;27.2;;;13.8;;
41229;SDS011;26964;50.428;19.218;2023-04-24T00:04:53;25.3;;;13.7;;
41229;SDS011;26964;50.428;19.218;2023-04-24T00:05:53;29.2;;;15.5;;
41229;SDS011;26964;50.428;19.218;2023-04-24T00:06:53;23.4;;;13.0;;
41229;SDS011;26964;50.428;19.218;2023-04-24T00:08:53;28.7;;;14.0;;
41229;SDS011;26964;50.428;19.218;2023-04-24T00:09:53;30.2;;;13.6;;
41229;SDS011;26964;50.428;19.218;2023-04-24T00:10:53;27.5;;;13.9;;
41229;SDS011;26964;50.428;19.218;2023-04-24T00:11:53;30.9;;;14.6;;
41229;SDS011;26964;50.428;19.218;2023-04-24T00:12:53;26.0;;;14.0;;
41229;SDS011;26964;50.428;19.218;2023-04-24T00:13:53;26.1;;;14.7;;
41229;SDS011;26964;50.428;19.218;2023-04-24T00:14:53;26.5;;;14.5;;
41229;SDS011;26964;50.428;19.218;2023-04-24T00:16:08;29.9;;;14.5;;
41229;SDS011;26964;50.428;19.218;2023-04-24T00:16:53;26.5;;;14.1;;
41229;SDS011;26964;50.428;19.218;2023-04-24T00:17:53;32.0;;;14.4;;
41229;SDS011;26964;50.428;19.218;2023-04-24T00:18:53;22.8;;;13.3;;
41229;SDS011;26964;50.428;19.218;2023-04-24T00:19:53;25.9;;;14.6;;
41229;SDS011;26964;50.428;19.218;2023-04-24T00:20:53;26.4;;;14.2;;
41229;SDS011;26964;50.428;19.218;2023-04-24T00:21:54;27.3;;;13.9;;
41229;SDS011;26964;50.428;19.218;2023-04-24T00:22:53;28.5;;;15.8;;
41229;SDS011;26964;50.428;19.218;2023-04-24T00:23:53;31.5;;;14.8;;
41229;SDS011;26964;50.428;19.218;2023-04-24T00:24:53;28.9;;;14.1;;
41229;SDS011;26964;50.428;19.218;2023-04-24T00:25:53;24.0;;;13.4;;
41229;SDS011;26964;50.428;19.218;2023-04-24T00:26:53;23.7;;;14.3;;
41229;SDS011;26964;50.428;19.218;2023-04-24T00:27:53;28.1;;;14.2;;
41229;SDS011;26964;50.428;19.218;2023-04-24T00:28:53;23.2;;;14.1;;
41229;SDS011;26964;50.428;19.218;2023-04-24T00:29:53;24.6;;;12.9;;
41229;SDS011;26964;50.428;19.218;2023-04-24T00:30:53;24.4;;;13.4;;
41229;SDS011;26964;50.428;19.218;2023-04-24T00:31:53;29.2;;;14.4;;
41229;SDS011;26964;50.428;19.218;2023-04-24T00:32:53;22.8;;;12.9;;
41229;SDS011;26964;50.428;19.218;2023-04-24T00:33:53;18.5;;;11.9;;
41229;SDS011;26964;50.428;19.218;2023-04-24T00:34:53;24.5;;;12.9;;
41229;SDS011;26964;50.428;19.218;2023-04-24T00:35:53;21.3;;;12.8;;
41229;SDS011;26964;50.428;19.218;2023-04-24T00:36:53;20.8;;;12.6;;
41229;SDS011;26964;50.428;19.218;2023-04-24T00:37:53;24.2;;;12.3;;
41229;SDS011;26964;50.428;19.218;2023-04-24T00:38:53;20.8;;;12.2;;
41229;SDS011;26964;50.428;19.218;2023-04-24T00:39:53;23.2;;;12.1;;
41229;SDS011;26964;50.428;19.218;2023-04-24T00:40:53;23.7;;;13.4;;
41229;SDS011;26964;50.428;19.218;2023-04-24T00:41:53;22.7;;;12.9;;
41229;SDS011;26964;50.428;19.218;2023-04-24T00:42:53;21.2;;;12.9;;
41229;SDS011;26964;50.428;19.218;2023-04-24T00:43:53;24.0;;;12.3;;
41229;SDS011;26964;50.428;19.218;2023-04-24T00:44:53;22.4;;;12.9;;
41229;SDS011;26964;50.428;19.218;2023-04-24T00:45:53;23.1;;;12.8;;
41229;SDS011;26964;50.428;19.218;2023-04-24T00:46:53;23.0;;;12.4;;
41229;SDS011;26964;50.428;19.218;2023-04-24T00:47:53;22.0;;;13.1;;
41229;SDS011;26964;50.428;19.218;2023-04-24T00:48:55;23.1;;;12.5;;
41229;SDS011;26964;50.428;19.218;2023-04-24T00:49:53;21.7;;;13.2;;
41229;SDS011;26964;50.428;19.218;2023-04-24T00:50:53;19.9;;;12.6;;
41229;SDS011;26964;50.428;19.218;2023-04-24T00:51:53;20.5;;;11.7;;
41229;SDS011;26964;50.428;19.218;2023-04-24T00:52:53;24.3;;;13.2;;
41229;SDS011;26964;50.428;19.218;2023-04-24T00:53:53;20.0;;;12.6;;
41229;SDS011;26964;50.428;19.218;2023-04-24T00:54:53;19.7;;;12.2;;
41229;SDS011;26964;50.428;19.218;2023-04-24T00:55:53;18.0;;;11.2;;
41229;SDS011;26964;50.428;19.218;2023-04-24T00:56:53;18.9;;;11.7;;
41229;SDS011;26964;50.428;19.218;2023-04-24T00:57:53;18.5;;;11.3;;
41229;SDS011;26964;50.428;19.218;2023-04-24T00:58:53;24.3;;;11.0;;
41229;SDS011;26964;50.428;19.218;2023-04-24T00:59:53;18.5;;;10.5;;
41229;SDS011;26964;50.428;19.218;2023-04-24T01:00:53;24.4;;;13.0;;
41229;SDS011;26964;50.428;19.218;2023-04-24T01:02:15;30.7;;;11.8;;
41229;SDS011;26964;50.428;19.218;2023-04-24T01:02:53;17.3;;;10.9;;
41229;SDS011;26964;50.428;19.218;2023-04-24T01:03:53;19.3;;;10.5;;
41229;SDS011;26964;50.428;19.218;2023-04-24T01:04:53;17.1;;;10.4;;
41229;SDS011;26964;50.428;19.218;2023-04-24T01:05:53;25.5;;;10.8;;
41229;SDS011;26964;50.428;19.218;2023-04-24T01:06:53;15.3;;;9.9;;
41229;SDS011;26964;50.428;19.218;2023-04-24T01:07:53;18.8;;;10.2;;
41229;SDS011;26964;50.428;19.218;2023-04-24T01:08:53;18.1;;;9.8;;
41229;SDS011;26964;50.428;19.218;2023-04-24T01:09:53;21.6;;;10.4;;
41229;SDS011;26964;50.428;19.218;2023-04-24T01:10:53;16.9;;;10.0;;
41229;SDS011;26964;50.428;19.218;2023-04-24T01:11:53;19.3;;;10.1;;
41229;SDS011;26964;50.428;19.218;2023-04-24T01:12:53;16.5;;;9.7;;
41229;SDS011;26964;50.428;19.218;2023-04-24T01:13:53;16.0;;;10.2;;
41229;SDS011;26964;50.428;19.218;2023-04-24T01:14:53;21.5;;;9.5;;
41229;SDS011;26964;50.428;19.218;2023-04-24T01:15:53;16.4;;;9.7;;
41229;SDS011;26964;50.428;19.218;2023-04-24T01:16:53;16.9;;;9.6;;
41229;SDS011;26964;50.428;19.218;2023-04-24T01:17:53;17.9;;;9.9;;
41229;SDS011;26964;50.428;19.218;2023-04-24T01:18:53;16.0;;;10.2;;
41229;SDS011;26964;50.428;19.218;2023-04-24T01:19:53;15.1;;;10.2;;
41229;SDS011;26964;50.428;19.218;2023-04-24T01:20:54;19.5;;;11.0;;
41229;SDS011;26964;50.428;19.218;2023-04-24T01:21:53;19.5;;;10.3;;
41229;SDS011;26964;50.428;19.218;2023-04-24T01:22:54;18.0;;;10.6;;
41229;SDS011;26964;50.428;19.218;2023-04-24T01:23:53;16.2;;;10.5;;
41229;SDS011;26964;50.428;19.218;2023-04-24T01:24:53;17.5;;;10.4;;
41229;SDS011;26964;50.428;19.218;2023-04-24T01:25:54;16.8;;;10.2;;
41229;SDS011;26964;50.428;19.218;2023-04-24T01:26:53;18.5;;;10.5;;
41229;SDS011;26964;50.428;19.218;2023-04-24T01:27:53;15.3;;;10.1;;
41229;SDS011;26964;50.428;19.218;2023-04-24T01:28:53;19.6;;;10.9;;
41229;SDS011;26964;50.428;19.218;2023-04-24T01:29:53;17.3;;;10.2;;
41229;SDS011;26964;50.428;19.218;2023-04-24T01:30:53;19.1;;;9.8;;
41229;SDS011;26964;50.428;19.218;2023-04-24T01:31:53;18.7;;;10.4;;
41229;SDS011;26964;50.428;19.218;2023-04-24T01:32:53;20.8;;;10.8;;
41229;SDS011;26964;50.428;19.218;2023-04-24T01:33:53;20.8;;;10.8;;
41229;SDS011;26964;50.428;19.218;2023-04-24T01:36:53;19.9;;;11.1;;
41229;SDS011;26964;50.428;19.218;2023-04-24T01:37:53;22.0;;;11.4;;
41229;SDS011;26964;50.428;19.218;2023-04-24T01:38:53;18.1;;;11.7;;
41229;SDS011;26964;50.428;19.218;2023-04-24T01:39:53;19.5;;;11.5;;
41229;SDS011;26964;50.428;19.218;2023-04-24T01:40:53;19.2;;;10.6;;
41229;SDS011;26964;50.428;19.218;2023-04-24T01:41:59;21.4;;;11.2;;
41229;SDS011;26964;50.428;19.218;2023-04-24T01:42:53;23.5;;;11.1;;
41229;SDS011;26964;50.428;19.218;2023-04-24T01:43:53;22.2;;;12.0;;
41229;SDS011;26964;50.428;19.218;2023-04-24T01:44:53;21.0;;;11.9;;
41229;SDS011;26964;50.428;19.218;2023-04-24T01:45:53;28.9;;;12.3;;
41229;SDS011;26964;50.428;19.218;2023-04-24T01:46:53;21.3;;;11.7;;
41229;SDS011;26964;50.428;19.218;2023-04-24T01:47:53;22.2;;;11.0;;
41229;SDS011;26964;50.428;19.218;2023-04-24T01:48:54;27.0;;;13.1;;
41229;SDS011;26964;50.428;19.218;2023-04-24T01:49:53;24.4;;;12.4;;
41229;SDS011;26964;50.428;19.218;2023-04-24T01:50:53;25.1;;;12.4;;
41229;SDS011;26964;50.428;19.218;2023-04-24T01:51:53;23.1;;;12.0;;
41229;SDS011;26964;50.428;19.218;2023-04-24T01:52:53;26.5;;;12.9;;
41229;SDS011;26964;50.428;19.218;2023-04-24T01:53:53;25.3;;;13.3;;
41229;SDS011;26964;50.428;19.218;2023-04-24T01:54:53;25.0;;;11.2;;
41229;SDS011;26964;50.428;19.218;2023-04-24T01:55:53;23.0;;;12.7;;
41229;SDS011;26964;50.428;19.218;2023-04-24T01:56:53;25.2;;;11.8;;
41229;SDS011;26964;50.428;19.218;2023-04-24T01:57:53;27.5;;;12.9;;
41229;SDS011;26964;50.428;19.218;2023-04-24T01:58:53;25.4;;;11.7;;
41229;SDS011;26964;50.428;19.218;2023-04-24T01:59:53;34.5;;;12.3;;
41229;SDS011;26964;50.428;19.218;2023-04-24T02:01:53;26.7;;;12.5;;
41229;SDS011;26964;50.428;19.218;2023-04-24T02:02:53;23.9;;;13.1;;
41229;SDS011;26964;50.428;19.218;2023-04-24T02:03:53;23.2;;;11.9;;
41229;SDS011;26964;50.428;19.218;2023-04-24T02:04:53;25.4;;;12.6;;
41229;SDS011;26964;50.428;19.218;2023-04-24T02:05:53;22.9;;;12.7;;
41229;SDS011;26964;50.428;19.218;2023-04-24T02:06:53;24.8;;;12.4;;
41229;SDS011;26964;50.428;19.218;2023-04-24T02:07:54;19.7;;;11.5;;
41229;SDS011;26964;50.428;19.218;2023-04-24T02:08:53;22.1;;;12.2;;
41229;SDS011;26964;50.428;19.218;2023-04-24T02:09:53;21.7;;;12.3;;
41229;SDS011;26964;50.428;19.218;2023-04-24T02:10:53;22.7;;;11.8;;
41229;SDS011;26964;50.428;19.218;2023-04-24T02:11:53;24.5;;;12.7;;
41229;SDS011;26964;50.428;19.218;2023-04-24T02:12:53;25.2;;;12.7;;
41229;SDS011;26964;50.428;19.218;2023-04-24T02:13:53;27.4;;;13.3;;
41229;SDS011;26964;50.428;19.218;2023-04-24T02:14:53;30.4;;;12.8;;
41229;SDS011;26964;50.428;19.218;2023-04-24T02:15:53;26.6;;;12.6;;
41229;SDS011;26964;50.428;19.218;2023-04-24T02:16:53;23.6;;;12.4;;
41229;SDS011;26964;50.428;19.218;2023-04-24T02:17:55;23.5;;;12.4;;
41229;SDS011;26964;50.428;19.218;2023-04-24T02:18:53;25.1;;;12.8;;
41229;SDS011;26964;50.428;19.218;2023-04-24T02:19:54;29.9;;;13.5;;
41229;SDS011;26964;50.428;19.218;2023-04-24T02:20:53;28.8;;;12.3;;
41229;SDS011;26964;50.428;19.218;2023-04-24T02:21:53;29.3;;;12.6;;
41229;SDS011;26964;50.428;19.218;2023-04-24T02:22:53;24.2;;;12.3;;
41229;SDS011;26964;50.428;19.218;2023-04-24T02:23:53;22.3;;;11.6;;
41229;SDS011;26964;50.428;19.218;2023-04-24T02:24:53;23.3;;;11.2;;
41229;SDS011;26964;50.428;19.218;2023-04-24T02:25:53;21.0;;;10.8;;
41229;SDS011;26964;50.428;19.218;2023-04-24T02:28:53;25.7;;;10.9;;
41229;SDS011;26964;50.428;19.218;2023-04-24T02:29:53;19.6;;;10.8;;
41229;SDS011;26964;50.428;19.218;2023-04-24T02:30:53;20.3;;;11.1;;
41229;SDS011;26964;50.428;19.218;2023-04-24T02:31:53;22.2;;;10.4;;
41229;SDS011;26964;50.428;19.218;2023-04-24T02:33:16;23.2;;;11.0;;
41229;SDS011;26964;50.428;19.218;2023-04-24T02:33:53;19.5;;;11.1;;
41229;SDS011;26964;50.428;19.218;2023-04-24T02:34:59;20.8;;;10.8;;
41229;SDS011;26964;50.428;19.218;2023-04-24T02:35:53;18.6;;;10.8;;
41229;SDS011;26964;50.428;19.218;2023-04-24T02:36:53;19.8;;;10.8;;
41229;SDS011;26964;50.428;19.218;2023-04-24T02:37:53;21.0;;;12.0;;
41229;SDS011;26964;50.428;19.218;2023-04-24T02:38:53;27.8;;;13.3;;
41229;SDS011;26964;50.428;19.218;2023-04-24T02:39:53;27.1;;;13.9;;
41229;SDS011;26964;50.428;19.218;2023-04-24T02:40:53;22.9;;;12.7;;
41229;SDS011;26964;50.428;19.218;2023-04-24T02:41:53;26.1;;;13.3;;
41229;SDS011;26964;50.428;19.218;2023-04-24T02:42:53;25.1;;;13.9;;
41229;SDS011;26964;50.428;19.218;2023-04-24T02:43:53;30.2;;;14.0;;
41229;SDS011;26964;50.428;19.218;2023-04-24T02:44:53;31.1;;;14.9;;
41229;SDS011;26964;50.428;19.218;2023-04-24T02:45:53;28.4;;;14.5;;
41229;SDS011;26964;50.428;19.218;2023-04-24T02:46:54;29.9;;;14.2;;
41229;SDS011;26964;50.428;19.218;2023-04-24T02:47:53;33.9;;;15.7;;
41229;SDS011;26964;50.428;19.218;2023-04-24T02:48:53;33.6;;;15.1;;
41229;SDS011;26964;50.428;19.218;2023-04-24T02:49:53;31.7;;;15.3;;
41229;SDS011;26964;50.428;19.218;2023-04-24T02:50:53;31.6;;;15.7;;
41229;SDS011;26964;50.428;19.218;2023-04-24T02:51:53;28.5;;;14.9;;
41229;SDS011;26964;50.428;19.218;2023-04-24T02:52:55;30.3;;;15.1;;
41229;SDS011;26964;50.428;19.218;2023-04-24T02:53:53;28.6;;;14.6;;
41229;SDS011;26964;50.428;19.218;2023-04-24T02:54:53;35.2;;;16.2;;
41229;SDS011;26964;50.428;19.218;2023-04-24T02:55:53;32.6;;;16.2;;
41229;SDS011;26964;50.428;19.218;2023-04-24T02:56:53;30.1;;;15.5;;
41229;SDS011;26964;50.428;19.218;2023-04-24T02:59:53;34.0;;;16.2;;
41229;SDS011;26964;50.428;19.218;2023-04-24T03:00:53;29.8;;;15.8;;
41229;SDS011;26964;50.428;19.218;2023-04-24T03:01:53;29.1;;;15.4;;
41229;SDS011;26964;50.428;19.218;2023-04-24T03:02:53;29.9;;;15.3;;
41229;SDS011;26964;50.428;19.218;2023-04-24T03:03:53;33.3;;;15.6;;
41229;SDS011;26964;50.428;19.218;2023-04-24T03:04:53;28.6;;;15.1;;
41229;SDS011;26964;50.428;19.218;2023-04-24T03:05:53;28.4;;;15.2;;
41229;SDS011;26964;50.428;19.218;2023-04-24T03:06:53;33.4;;;15.6;;
41229;SDS011;26964;50.428;19.218;2023-04-24T03:07:53;33.8;;;15.5;;
41229;SDS011;26964;50.428;19.218;2023-04-24T03:08:53;30.1;;;14.9;;
41229;SDS011;26964;50.428;19.218;2023-04-24T03:09:53;30.4;;;14.9;;
41229;SDS011;26964;50.428;19.218;2023-04-24T03:10:53;29.8;;;14.3;;
41229;SDS011;26964;50.428;19.218;2023-04-24T03:11:53;33.9;;;16.3;;
41229;SDS011;26964;50.428;19.218;2023-04-24T03:12:53;29.8;;;15.2;;
41229;SDS011;26964;50.428;19.218;2023-04-24T03:13:56;29.5;;;15.2;;
41229;SDS011;26964;50.428;19.218;2023-04-24T03:14:53;26.1;;;14.0;;
41229;SDS011;26964;50.428;19.218;2023-04-24T03:15:53;34.5;;;15.4;;
41229;SDS011;26964;50.428;19.218;2023-04-24T03:16:53;26.4;;;14.3;;
41229;SDS011;26964;50.428;19.218;2023-04-24T03:17:53;30.5;;;14.9;;
41229;SDS011;26964;50.428;19.218;2023-04-24T03:18:53;25.0;;;13.5;;
41229;SDS011;26964;50.428;19.218;2023-04-24T03:19:53;30.1;;;13.9;;
41229;SDS011;26964;50.428;19.218;2023-04-24T03:20:53;28.8;;;14.0;;
41229;SDS011;26964;50.428;19.218;2023-04-24T03:21:53;26.4;;;13.5;;
41229;SDS011;26964;50.428;19.218;2023-04-24T03:22:53;29.4;;;14.5;;
41229;SDS011;26964;50.428;19.218;2023-04-24T03:23:53;29.7;;;14.7;;
41229;SDS011;26964;50.428;19.218;2023-04-24T03:24:53;25.5;;;13.8;;
41229;SDS011;26964;50.428;19.218;2023-04-24T03:25:53;24.9;;;13.4;;
41229;SDS011;26964;50.428;19.218;2023-04-24T03:26:53;27.3;;;13.1;;
41229;SDS011;26964;50.428;19.218;2023-04-24T03:27:53;25.8;;;13.0;;
41229;SDS011;26964;50.428;19.218;2023-04-24T03:28:53;26.3;;;13.1;;
41229;SDS011;26964;50.428;19.218;2023-04-24T03:29:53;25.8;;;13.2;;
41229;SDS011;26964;50.428;19.218;2023-04-24T03:30:53;28.6;;;13.1;;
41229;SDS011;26964;50.428;19.218;2023-04-24T03:31:53;31.0;;;14.0;;
41229;SDS011;26964;50.428;19.218;2023-04-24T03:34:53;28.6;;;13.3;;
41229;SDS011;26964;50.428;19.218;2023-04-24T03:35:53;26.6;;;13.9;;
41229;SDS011;26964;50.428;19.218;2023-04-24T03:39:53;29.2;;;13.5;;
41229;SDS011;26964;50.428;19.218;2023-04-24T03:40:53;30.5;;;13.4;;
41229;SDS011;26964;50.428;19.218;2023-04-24T03:42:53;33.3;;;13.5;;
41229;SDS011;26964;50.428;19.218;2023-04-24T03:43:53;23.8;;;12.6;;
41229;SDS011;26964;50.428;19.218;2023-04-24T03:44:54;25.8;;;12.1;;
41229;SDS011;26964;50.428;19.218;2023-04-24T03:45:53;21.7;;;12.0;;
41229;SDS011;26964;50.428;19.218;2023-04-24T03:46:53;24.3;;;12.7;;
41229;SDS011;26964;50.428;19.218;2023-04-24T03:47:53;25.5;;;12.6;;
41229;SDS011;26964;50.428;19.218;2023-04-24T03:48:53;22.7;;;12.3;;
41229;SDS011;26964;50.428;19.218;2023-04-24T03:49:53;28.5;;;13.4;;
41229;SDS011;26964;50.428;19.218;2023-04-24T03:50:53;28.5;;;14.4;;
41229;SDS011;26964;50.428;19.218;2023-04-24T03:51:53;29.3;;;14.5;;
41229;SDS011;26964;50.428;19.218;2023-04-24T03:52:53;30.4;;;15.2;;
41229;SDS011;26964;50.428;19.218;2023-04-24T03:53:53;30.1;;;15.2;;
41229;SDS011;26964;50.428;19.218;2023-04-24T03:54:53;30.4;;;14.7;;
41229;SDS011;26964;50.428;19.218;2023-04-24T03:55:53;26.7;;;13.4;;
41229;SDS011;26964;50.428;19.218;2023-04-24T03:56:53;26.5;;;13.4;;
41229;SDS011;26964;50.428;19.218;2023-04-24T03:57:53;31.1;;;13.3;;
41229;SDS011;26964;50.428;19.218;2023-04-24T03:58:53;27.4;;;13.6;;
41229;SDS011;26964;50.428;19.218;2023-04-24T03:59:53;28.8;;;13.2;;
41229;SDS011;26964;50.428;19.218;2023-04-24T04:00:53;26.3;;;12.6;;
41229;SDS011;26964;50.428;19.218;2023-04-24T04:01:53;26.0;;;12.0;;
41229;SDS011;26964;50.428;19.218;2023-04-24T04:02:53;26.6;;;13.3;;
41229;SDS011;26964;50.428;19.218;2023-04-24T04:03:53;23.9;;;12.0;;
41229;SDS011;26964;50.428;19.218;2023-04-24T04:04:53;26.5;;;12.2;;
41229;SDS011;26964;50.428;19.218;2023-04-24T04:05:53;23.9;;;11.1;;
41229;SDS011;26964;50.428;19.218;2023-04-24T04:06:53;25.5;;;12.6;;
41229;SDS011;26964;50.428;19.218;2023-04-24T04:07:53;23.9;;;11.5;;
41229;SDS011;26964;50.428;19.218;2023-04-24T04:08:53;23.4;;;11.1;;
41229;SDS011;26964;50.428;19.218;2023-04-24T04:09:53;24.1;;;11.3;;
41229;SDS011;26964;50.428;19.218;2023-04-24T04:10:53;23.2;;;11.2;;
41229;SDS011;26964;50.428;19.218;2023-04-24T04:11:53;21.7;;;10.6;;
41229;SDS011;26964;50.428;19.218;2023-04-24T04:12:53;25.1;;;10.8;;
41229;SDS011;26964;50.428;19.218;2023-04-24T04:13:53;25.3;;;12.1;;
41229;SDS011;26964;50.428;19.218;2023-04-24T04:14:53;27.6;;;12.9;;
41229;SDS011;26964;50.428;19.218;2023-04-24T04:15:54;27.3;;;12.7;;
41229;SDS011;26964;50.428;19.218;2023-04-24T04:16:53;25.3;;;12.5;;
41229;SDS011;26964;50.428;19.218;2023-04-24T04:17:53;26.4;;;12.4;;
41229;SDS011;26964;50.428;19.218;2023-04-24T04:18:53;28.1;;;13.6;;
41229;SDS011;26964;50.428;19.218;2023-04-24T04:19:53;25.2;;;11.9;;
41229;SDS011;26964;50.428;19.218;2023-04-24T04:20:53;24.8;;;12.1;;
41229;SDS011;26964;50.428;19.218;2023-04-24T04:21:53;24.5;;;11.0;;
41229;SDS011;26964;50.428;19.218;2023-04-24T04:22:53;28.0;;;12.8;;
41229;SDS011;26964;50.428;19.218;2023-04-24T04:23:53;24.3;;;12.1;;
41229;SDS011;26964;50.428;19.218;2023-04-24T04:24:53;25.1;;;11.6;;
41229;SDS011;26964;50.428;19.218;2023-04-24T04:25:53;25.9;;;12.3;;
41229;SDS011;26964;50.428;19.218;2023-04-24T04:27:53;30.1;;;11.7;;
41229;SDS011;26964;50.428;19.218;2023-04-24T04:28:53;32.4;;;12.5;;
41229;SDS011;26964;50.428;19.218;2023-04-24T04:29:53;32.9;;;12.3;;
41229;SDS011;26964;50.428;19.218;2023-04-24T04:30:53;30.0;;;13.4;;
41229;SDS011;26964;50.428;19.218;2023-04-24T04:31:53;31.0;;;13.6;;
41229;SDS011;26964;50.428;19.218;2023-04-24T04:32:53;31.8;;;14.0;;
41229;SDS011;26964;50.428;19.218;2023-04-24T04:33:53;30.1;;;13.3;;
41229;SDS011;26964;50.428;19.218;2023-04-24T04:34:53;39.7;;;13.2;;
41229;SDS011;26964;50.428;19.218;2023-04-24T04:35:53;39.4;;;14.8;;
41229;SDS011;26964;50.428;19.218;2023-04-24T04:36:53;32.4;;;12.7;;
41229;SDS011;26964;50.428;19.218;2023-04-24T04:38:53;30.3;;;12.8;;
41229;SDS011;26964;50.428;19.218;2023-04-24T04:39:53;28.4;;;13.5;;
41229;SDS011;26964;50.428;19.218;2023-04-24T04:40:53;30.0;;;13.7;;
41229;SDS011;26964;50.428;19.218;2023-04-24T04:41:53;35.0;;;15.5;;
41229;SDS011;26964;50.428;19.218;2023-04-24T04:42:53;33.4;;;14.2;;
41229;SDS011;26964;50.428;19.218;2023-04-24T04:43:53;32.0;;;14.4;;
41229;SDS011;26964;50.428;19.218;2023-04-24T04:44:53;29.4;;;13.9;;
41229;SDS011;26964;50.428;19.218;2023-04-24T04:45:53;33.9;;;14.6;;
41229;SDS011;26964;50.428;19.218;2023-04-24T04:46:54;33.7;;;15.0;;
41229;SDS011;26964;50.428;19.218;2023-04-24T04:48:54;39.3;;;16.2;;
41229;SDS011;26964;50.428;19.218;2023-04-24T04:49:53;46.5;;;16.7;;
41229;SDS011;26964;50.428;19.218;2023-04-24T04:50:53;40.5;;;17.1;;
41229;SDS011;26964;50.428;19.218;2023-04-24T04:51:53;32.3;;;14.4;;
41229;SDS011;26964;50.428;19.218;2023-04-24T04:52:53;28.8;;;14.5;;
41229;SDS011;26964;50.428;19.218;2023-04-24T04:53:53;32.5;;;15.1;;
41229;SDS011;26964;50.428;19.218;2023-04-24T04:54:53;37.3;;;15.3;;
41229;SDS011;26964;50.428;19.218;2023-04-24T04:55:53;29.1;;;14.7;;
41229;SDS011;26964;50.428;19.218;2023-04-24T04:56:53;32.6;;;14.8;;
41229;SDS011;26964;50.428;19.218;2023-04-24T04:57:53;37.1;;;16.2;;
41229;SDS011;26964;50.428;19.218;2023-04-24T04:58:53;37.1;;;15.9;;
41229;SDS011;26964;50.428;19.218;2023-04-24T04:59:53;37.2;;;15.5;;
41229;SDS011;26964;50.428;19.218;2023-04-24T05:00:53;33.6;;;15.4;;
41229;SDS011;26964;50.428;19.218;2023-04-24T05:01:53;28.0;;;14.4;;
41229;SDS011;26964;50.428;19.218;2023-04-24T05:03:03;36.6;;;15.0;;
41229;SDS011;26964;50.428;19.218;2023-04-24T05:03:53;36.1;;;15.6;;
41229;SDS011;26964;50.428;19.218;2023-04-24T05:04:53;35.5;;;16.0;;
41229;SDS011;26964;50.428;19.218;2023-04-24T05:05:53;35.5;;;15.3;;
41229;SDS011;26964;50.428;19.218;2023-04-24T05:06:53;33.7;;;14.4;;
41229;SDS011;26964;50.428;19.218;2023-04-24T05:07:53;35.4;;;16.6;;
41229;SDS011;26964;50.428;19.218;2023-04-24T05:08:53;38.3;;;16.9;;
41229;SDS011;26964;50.428;19.218;2023-04-24T05:09:53;39.8;;;16.6;;
41229;SDS011;26964;50.428;19.218;2023-04-24T05:10:53;36.1;;;15.7;;
41229;SDS011;26964;50.428;19.218;2023-04-24T05:11:53;29.4;;;15.4;;
41229;SDS011;26964;50.428;19.218;2023-04-24T05:12:53;34.5;;;16.0;;
41229;SDS011;26964;50.428;19.218;2023-04-24T05:13:53;34.4;;;15.9;;
41229;SDS011;26964;50.428;19.218;2023-04-24T05:14:53;31.4;;;16.1;;
41229;SDS011;26964;50.428;19.218;2023-04-24T05:15:54;33.2;;;16.3;;
41229;SDS011;26964;50.428;19.218;2023-04-24T05:16:53;37.4;;;16.7;;
41229;SDS011;26964;50.428;19.218;2023-04-24T05:17:53;35.2;;;17.0;;
41229;SDS011;26964;50.428;19.218;2023-04-24T05:18:53;33.2;;;16.3;;
41229;SDS011;26964;50.428;19.218;2023-04-24T05:19:53;33.6;;;16.0;;
41229;SDS011;26964;50.428;19.218;2023-04-24T05:20:53;30.5;;;16.3;;
41229;SDS011;26964;50.428;19.218;2023-04-24T05:21:53;33.3;;;16.7;;
41229;SDS011;26964;50.428;19.218;2023-04-24T05:22:53;35.3;;;18.9;;
41229;SDS011;26964;50.428;19.218;2023-04-24T05:23:53;49.8;;;22.9;;
41229;SDS011;26964;50.428;19.218;2023-04-24T05:24:53;66.1;;;32.8;;
41229;SDS011;26964;50.428;19.218;2023-04-24T05:25:53;48.1;;;23.1;;
41229;SDS011;26964;50.428;19.218;2023-04-24T05:26:53;41.8;;;21.8;;
41229;SDS011;26964;50.428;19.218;2023-04-24T05:27:53;38.9;;;17.7;;
41229;SDS011;26964;50.428;19.218;2023-04-24T05:28:53;41.2;;;17.4;;
41229;SDS011;26964;50.428;19.218;2023-04-24T05:29:53;33.9;;;16.6;;
41229;SDS011;26964;50.428;19.218;2023-04-24T05:30:53;34.0;;;15.5;;
41229;SDS011;26964;50.428;19.218;2023-04-24T05:31:53;30.6;;;14.8;;
41229;SDS011;26964;50.428;19.218;2023-04-24T05:32:53;30.6;;;14.9;;
41229;SDS011;26964;50.428;19.218;2023-04-24T05:34:06;30.1;;;14.1;;
41229;SDS011;26964;50.428;19.218;2023-04-24T05:35:06;58.4;;;17.7;;
41229;SDS011;26964;50.428;19.218;2023-04-24T05:36:06;58.5;;;16.9;;
41229;SDS011;26964;50.428;19.218;2023-04-24T05:37:06;36.1;;;15.1;;
41229;SDS011;26964;50.428;19.218;2023-04-24T05:38:06;37.8;;;14.5;;
41229;SDS011;26964;50.428;19.218;2023-04-24T05:39:06;28.4;;;13.9;;
41229;SDS011;26964;50.428;19.218;2023-04-24T05:40:06;30.4;;;14.6;;
41229;SDS011;26964;50.428;19.218;2023-04-24T05:41:06;37.7;;;15.8;;
41229;SDS011;26964;50.428;19.218;2023-04-24T05:42:06;32.1;;;13.9;;
41229;SDS011;26964;50.428;19.218;2023-04-24T05:43:06;33.3;;;14.3;;
41229;SDS011;26964;50.428;19.218;2023-04-24T05:44:06;34.4;;;15.0;;
41229;SDS011;26964;50.428;19.218;2023-04-24T05:45:06;29.2;;;15.3;;
41229;SDS011;26964;50.428;19.218;2023-04-24T05:47:06;29.8;;;14.7;;
41229;SDS011;26964;50.428;19.218;2023-04-24T05:48:06;31.9;;;15.0;;
41229;SDS011;26964;50.428;19.218;2023-04-24T05:49:06;36.7;;;15.5;;
41229;SDS011;26964;50.428;19.218;2023-04-24T05:50:06;31.4;;;14.5;;
41229;SDS011;26964;50.428;19.218;2023-04-24T05:51:06;31.5;;;14.6;;
41229;SDS011;26964;50.428;19.218;2023-04-24T05:52:06;38.0;;;15.2;;
41229;SDS011;26964;50.428;19.218;2023-04-24T05:53:06;33.5;;;15.6;;
41229;SDS011;26964;50.428;19.218;2023-04-24T05:54:06;35.5;;;15.3;;
41229;SDS011;26964;50.428;19.218;2023-04-24T05:55:06;37.4;;;14.7;;
41229;SDS011;26964;50.428;19.218;2023-04-24T05:56:06;31.5;;;15.5;;
41229;SDS011;26964;50.428;19.218;2023-04-24T05:57:06;30.1;;;14.1;;
41229;SDS011;26964;50.428;19.218;2023-04-24T05:58:06;29.8;;;14.6;;
41229;SDS011;26964;50.428;19.218;2023-04-24T05:59:06;29.2;;;14.3;;
41229;SDS011;26964;50.428;19.218;2023-04-24T06:00:06;33.5;;;13.5;;
41229;SDS011;26964;50.428;19.218;2023-04-24T06:01:06;30.9;;;14.6;;
41229;SDS011;26964;50.428;19.218;2023-04-24T06:02:06;29.7;;;13.3;;
41229;SDS011;26964;50.428;19.218;2023-04-24T06:03:06;30.6;;;14.4;;
41229;SDS011;26964;50.428;19.218;2023-04-24T06:04:06;29.5;;;14.5;;
41229;SDS011;26964;50.428;19.218;2023-04-24T06:11:06;31.7;;;14.8;;
41229;SDS011;26964;50.428;19.218;2023-04-24T06:12:06;35.2;;;14.5;;
41229;SDS011;26964;50.428;19.218;2023-04-24T06:13:06;34.1;;;14.4;;
41229;SDS011;26964;50.428;19.218;2023-04-24T06:14:06;29.3;;;14.0;;
41229;SDS011;26964;50.428;19.218;2023-04-24T06:15:06;28.3;;;13.1;;
41229;SDS011;26964;50.428;19.218;2023-04-24T06:16:06;25.6;;;13.4;;
41229;SDS011;26964;50.428;19.218;2023-04-24T06:17:06;30.6;;;15.8;;
41229;SDS011;26964;50.428;19.218;2023-04-24T06:18:06;34.8;;;16.4;;
41229;SDS011;26964;50.428;19.218;2023-04-24T06:19:06;40.1;;;16.6;;
41229;SDS011;26964;50.428;19.218;2023-04-24T06:20:06;36.1;;;17.8;;
41229;SDS011;26964;50.428;19.218;2023-04-24T06:21:06;34.8;;;16.9;;